Time;durP1;ratioP1;P1;durP2;ratioP2;P2;SDS_P1;SDS_P2;PMS_P1;PMS_P2;Temp;Humidity;BMP_temperature;BMP_pressure;BME280_temperature;BME280_humidity;BME280_pressure;Samples;Min_cycle;Max_cycle;Signal;HPM_P1;HPM_P2
2022/10/18 00:01:46;;;;;;;;;;;8.90;99.90;;;;;;5076260;28;19917;-72
2022/10/18 00:04:11;;;;;;;;;;;8.80;99.90;;;;;;5076254;28;19956;-72
2022/10/18 00:06:37;;;;;;;;;;;8.80;99.90;;;;;;5076283;28;19909;-73
2022/10/18 00:09:02;;;;;;;;;;;8.80;99.90;;;;;;5076185;28;20367;-73
2022/10/18 00:11:28;;;;;;;;;;;8.80;99.90;;;;;;5076185;28;19995;-73
2022/10/18 00:13:54;;;;;;;;;;;8.80;99.90;;;;;;5074832;28;19944;-72
2022/10/18 00:16:20;;;;;;;;;;;8.90;99.90;;;;;;5075992;28;20334;-73
2022/10/18 00:18:47;;;;;;;;;;;8.90;99.90;;;;;;5076165;28;19938;-72
2022/10/18 00:21:14;;;;;;;;;;;8.80;99.90;;;;;;5075965;28;19912;-72
2022/10/18 00:23:40;;;;;;;;;;;8.80;99.90;;;;;;5076184;28;19912;-72
2022/10/18 00:26:08;;;;;;;;;;;8.80;99.90;;;;;;5075912;28;19912;-72
2022/10/18 00:28:34;;;;;;;;;;;8.80;99.90;;;;;;5075841;28;20350;-73
2022/10/18 00:31:09;;;;;;;;;;;8.80;99.90;;;;;;5075822;28;19908;-72
2022/10/18 00:33:34;;;;;;;;;;;8.80;99.90;;;;;;5074757;28;19908;-72
2022/10/18 00:36:00;;;;;;;;;;;8.70;99.90;;;;;;5075661;28;19924;-72
2022/10/18 00:38:25;;;;;;;;;;;8.60;99.90;;;;;;5074344;28;19912;-73
2022/10/18 00:40:51;;;;;;;;;;;8.50;99.90;;;;;;5075570;28;19927;-72
2022/10/18 00:43:17;;;;;;;;;;;8.40;99.90;;;;;;5074299;28;20126;-72
2022/10/18 00:45:42;;;;;;;;;;;8.30;99.90;;;;;;5075574;28;19923;-72
2022/10/18 00:48:08;;;;;;;;;;;8.20;99.90;;;;;;5074238;28;20344;-73
2022/10/18 00:50:34;;;;;;;;;;;8.20;99.90;;;;;;5075387;28;19920;-72
2022/10/18 00:53:01;;;;;;;;;;;8.20;99.90;;;;;;5075678;28;19992;-72
2022/10/18 00:55:27;;;;;;;;;;;8.30;99.90;;;;;;5075274;28;19912;-72
2022/10/18 00:57:53;;;;;;;;;;;8.30;99.90;;;;;;5075300;28;20380;-72
2022/10/18 01:00:19;;;;;;;;;;;8.30;99.90;;;;;;5073892;28;19966;-72
2022/10/18 01:02:45;;;;;;;;;;;8.30;99.90;;;;;;5074466;28;19978;-73
2022/10/18 01:05:12;;;;;;;;;;;8.30;99.90;;;;;;5056986;28;20017;-72
2022/10/18 01:07:40;;;;;;;;;;;8.30;99.90;;;;;;5075099;28;19931;-72
2022/10/18 01:10:24;;;;;;;;;;;8.30;99.90;;;;;;5073596;28;20007;-72
2022/10/18 01:13:08;;;;;;;;;;;8.40;99.90;;;;;;5074775;28;19908;-72
2022/10/18 01:15:46;;;;;;;;;;;8.30;99.90;;;;;;5074652;28;20007;-72
2022/10/18 01:18:31;;;;;;;;;;;8.30;99.90;;;;;;5061610;28;19909;-72
2022/10/18 01:21:16;;;;;;;;;;;8.30;99.90;;;;;;5060566;28;19995;-72
2022/10/18 01:23:48;;;;;;;;;;;8.30;99.90;;;;;;5073405;28;19912;-72
2022/10/18 01:26:14;;;;;;;;;;;8.20;99.90;;;;;;5073894;28;20320;-72
2022/10/18 01:28:42;;;;;;;;;;;8.20;99.90;;;;;;5073135;28;19908;-73
2022/10/18 01:31:14;;;;;;;;;;;8.20;99.90;;;;;;5074461;28;19909;-72
2022/10/18 01:33:40;;;;;;;;;;;8.20;99.90;;;;;;5074378;28;19909;-72
2022/10/18 01:36:13;;;;;;;;;;;8.10;99.90;;;;;;5074108;28;19912;-73
2022/10/18 01:38:40;;;;;;;;;;;8.10;99.90;;;;;;5073850;28;19908;-73
2022/10/18 01:41:07;;;;;;;;;;;8.10;99.90;;;;;;5072399;28;20295;-72
2022/10/18 01:43:34;;;;;;;;;;;8.00;99.90;;;;;;5073562;28;19908;-73
2022/10/18 01:46:00;;;;;;;;;;;8.00;99.90;;;;;;5073946;28;19913;-72
2022/10/18 01:48:25;;;;;;;;;;;8.00;99.90;;;;;;5074179;28;19916;-72
2022/10/18 01:50:51;;;;;;;;;;;7.90;99.90;;;;;;5072922;28;19919;-72
2022/10/18 01:53:21;;;;;;;;;;;7.90;99.90;;;;;;5074705;28;20003;-72
2022/10/18 01:55:55;;;;;;;;;;;7.80;99.90;;;;;;5074081;28;19916;-72
2022/10/18 01:58:25;;;;;;;;;;;7.80;99.90;;;;;;5072782;28;20356;-72
2022/10/18 02:00:59;;;;;;;;;;;7.80;99.90;;;;;;5082432;22;19909;-85
2022/10/18 02:03:26;;;;;;;;;;;7.80;99.90;;;;;;5071931;28;19940;-86
2022/10/18 02:05:58;;;;;;;;;;;7.80;99.90;;;;;;5074335;28;19955;-86
2022/10/18 02:08:29;;;;;;;;;;;7.80;99.90;;;;;;5073297;28;19909;-86
2022/10/18 02:11:05;;;;;;;;;;;7.80;99.90;;;;;;5068129;28;19908;-86
2022/10/18 02:13:36;;;;;;;;;;;7.80;99.90;;;;;;5077212;28;19947;-85
2022/10/18 02:16:05;;;;;;;;;;;7.80;99.90;;;;;;5074203;28;20374;-83
2022/10/18 02:18:34;;;;;;;;;;;7.80;99.90;;;;;;5072728;28;20012;-83
2022/10/18 02:21:01;;;;;;;;;;;7.70;99.90;;;;;;5072333;28;19948;-83
2022/10/18 02:23:27;;;;;;;;;;;7.60;99.90;;;;;;5072581;28;19908;-83
2022/10/18 02:25:53;;;;;;;;;;;7.50;99.90;;;;;;5052466;28;20027;-83
2022/10/18 02:28:19;;;;;;;;;;;7.50;99.90;;;;;;5052680;28;20437;-82
2022/10/18 02:31:11;;;;;;;;;;;7.50;99.90;;;;;;5072446;28;19950;-82
2022/10/18 02:33:45;;;;;;;;;;;7.50;99.90;;;;;;5034466;28;19923;-83
2022/10/18 02:36:21;;;;;;;;;;;7.50;99.90;;;;;;5073662;28;20287;-82
2022/10/18 02:38:47;;;;;;;;;;;7.50;99.90;;;;;;5072445;28;19966;-82
2022/10/18 02:41:20;;;;;;;;;;;7.40;99.90;;;;;;5072267;28;19916;-82
2022/10/18 02:43:46;;;;;;;;;;;7.40;99.90;;;;;;5074962;28;19912;-82
2022/10/18 02:46:11;;;;;;;;;;;7.30;99.90;;;;;;5072176;28;19920;-82
2022/10/18 02:48:37;;;;;;;;;;;7.30;99.90;;;;;;5052131;28;20391;-82
2022/10/18 02:51:02;;;;;;;;;;;7.30;99.90;;;;;;5070056;28;20381;-82
2022/10/18 02:53:28;;;;;;;;;;;7.30;99.90;;;;;;5072222;28;20368;-82
2022/10/18 02:55:54;;;;;;;;;;;7.30;99.90;;;;;;5055724;28;19923;-82
2022/10/18 02:58:19;;;;;;;;;;;7.20;99.90;;;;;;5074952;28;20007;-82
2022/10/18 03:00:45;;;;;;;;;;;7.10;99.90;;;;;;5076388;28;19960;-83
2022/10/18 03:03:10;;;;;;;;;;;7.10;99.90;;;;;;5058876;28;19966;-82
2022/10/18 03:05:36;;;;;;;;;;;7.00;99.90;;;;;;5076182;28;19935;-82
2022/10/18 03:08:01;;;;;;;;;;;7.00;99.90;;;;;;5058880;28;19963;-82
2022/10/18 03:10:27;;;;;;;;;;;7.00;99.90;;;;;;5076297;28;19935;-82
2022/10/18 03:12:52;;;;;;;;;;;7.00;99.90;;;;;;5057622;28;20007;-82
2022/10/18 03:15:18;;;;;;;;;;;7.10;99.90;;;;;;5059425;28;19919;-83
2022/10/18 03:17:43;;;;;;;;;;;7.10;99.90;;;;;;5056988;28;19913;-83
2022/10/18 03:20:09;;;;;;;;;;;7.10;99.90;;;;;;5056861;28;19912;-82
2022/10/18 03:22:35;;;;;;;;;;;7.10;99.90;;;;;;5074179;28;20360;-83
2022/10/18 03:25:00;;;;;;;;;;;7.10;99.90;;;;;;5056260;28;20296;-83
2022/10/18 03:27:26;;;;;;;;;;;7.10;99.90;;;;;;5075818;28;19967;-83
2022/10/18 03:29:51;;;;;;;;;;;7.10;99.90;;;;;;5055856;28;19912;-83
2022/10/18 03:32:18;;;;;;;;;;;7.10;99.90;;;;;;5070153;28;19912;-82
2022/10/18 03:34:43;;;;;;;;;;;7.00;99.90;;;;;;5055841;28;19913;-83
2022/10/18 03:37:09;;;;;;;;;;;7.00;99.90;;;;;;5055602;28;20046;-82
2022/10/18 03:39:34;;;;;;;;;;;7.00;99.90;;;;;;5039862;28;19913;-82
2022/10/18 03:42:00;;;;;;;;;;;7.00;99.90;;;;;;5039274;28;19913;-83
2022/10/18 03:44:25;;;;;;;;;;;6.90;99.90;;;;;;5056293;28;19924;-82
2022/10/18 03:46:51;;;;;;;;;;;6.80;99.90;;;;;;5073678;28;19915;-82
2022/10/18 03:49:17;;;;;;;;;;;6.80;99.90;;;;;;5073385;28;19999;-83
2022/10/18 03:51:42;;;;;;;;;;;6.60;99.90;;;;;;5074990;28;19954;-82
2022/10/18 03:54:08;;;;;;;;;;;6.60;99.90;;;;;;5057054;28;19920;-83
2022/10/18 03:56:33;;;;;;;;;;;6.60;99.90;;;;;;5074449;28;19916;-82
2022/10/18 03:58:59;;;;;;;;;;;6.60;99.90;;;;;;5075137;28;19913;-82
2022/10/18 04:01:24;;;;;;;;;;;6.70;99.90;;;;;;5075583;28;20287;-82
2022/10/18 04:03:50;;;;;;;;;;;6.70;99.90;;;;;;5074884;28;19913;-82
2022/10/18 04:06:16;;;;;;;;;;;6.60;99.90;;;;;;5074628;28;19912;-82
2022/10/18 04:08:42;;;;;;;;;;;6.60;99.90;;;;;;5057537;28;20342;-82
2022/10/18 04:11:08;;;;;;;;;;;6.60;99.90;;;;;;5073101;28;19912;-83
2022/10/18 04:13:34;;;;;;;;;;;6.50;99.90;;;;;;5061152;28;19912;-83
2022/10/18 04:16:00;;;;;;;;;;;6.60;99.90;;;;;;5074476;28;20366;-82
2022/10/18 04:18:25;;;;;;;;;;;6.60;99.90;;;;;;5075678;28;19913;-83
2022/10/18 04:20:51;;;;;;;;;;;6.60;99.90;;;;;;5074595;28;20007;-82
2022/10/18 04:23:16;;;;;;;;;;;6.50;99.90;;;;;;5055647;28;19923;-81
2022/10/18 04:25:42;;;;;;;;;;;6.50;99.90;;;;;;5075562;28;19912;-79
2022/10/18 04:28:07;;;;;;;;;;;6.50;99.90;;;;;;5076033;28;19943;-79
2022/10/18 04:30:33;;;;;;;;;;;6.50;99.90;;;;;;5075918;28;20332;-80
2022/10/18 04:32:59;;;;;;;;;;;6.50;99.90;;;;;;5075253;28;19912;-80
2022/10/18 04:35:24;;;;;;;;;;;6.50;99.90;;;;;;5071737;28;19967;-81
2022/10/18 04:37:50;;;;;;;;;;;6.40;99.90;;;;;;5077354;28;19917;-80
2022/10/18 04:40:16;;;;;;;;;;;6.30;99.90;;;;;;5076205;28;19917;-80
2022/10/18 04:42:41;;;;;;;;;;;6.30;99.90;;;;;;5076900;28;19916;-80
2022/10/18 04:45:07;;;;;;;;;;;6.30;99.90;;;;;;5081340;28;19913;-80
2022/10/18 04:47:32;;;;;;;;;;;6.40;99.90;;;;;;5075980;28;19921;-80
2022/10/18 04:49:58;;;;;;;;;;;6.40;99.90;;;;;;5055616;28;19920;-82
2022/10/18 04:52:24;;;;;;;;;;;6.40;99.90;;;;;;5056304;28;19921;-80
2022/10/18 04:54:49;;;;;;;;;;;6.40;99.90;;;;;;5076283;28;19916;-80
2022/10/18 04:57:15;;;;;;;;;;;6.40;99.90;;;;;;5074769;28;19916;-79
2022/10/18 04:59:40;;;;;;;;;;;6.40;99.90;;;;;;5076621;28;19912;-80
2022/10/18 05:02:06;;;;;;;;;;;6.40;99.90;;;;;;5057824;28;19931;-80
2022/10/18 05:04:31;;;;;;;;;;;6.40;99.90;;;;;;5074923;28;19917;-80
2022/10/18 05:06:57;;;;;;;;;;;6.30;99.90;;;;;;5074539;28;19922;-80
2022/10/18 05:09:23;;;;;;;;;;;6.30;99.90;;;;;;5057864;28;19942;-80
2022/10/18 05:11:49;;;;;;;;;;;6.30;99.90;;;;;;5074559;28;20375;-80
2022/10/18 05:14:14;;;;;;;;;;;6.30;99.90;;;;;;5076047;28;19920;-79
2022/10/18 05:16:40;;;;;;;;;;;6.30;99.90;;;;;;5075653;28;20330;-80
2022/10/18 05:19:06;;;;;;;;;;;6.20;99.90;;;;;;5074221;28;20396;-80
2022/10/18 05:21:32;;;;;;;;;;;6.20;99.90;;;;;;5074244;28;20271;-80
2022/10/18 05:23:57;;;;;;;;;;;6.20;99.90;;;;;;5074261;28;19916;-80
2022/10/18 05:26:23;;;;;;;;;;;6.20;99.90;;;;;;5075449;28;19912;-80
2022/10/18 05:28:49;;;;;;;;;;;6.10;99.90;;;;;;5075963;28;20413;-80
2022/10/18 05:31:14;;;;;;;;;;;6.10;99.90;;;;;;5075540;28;19912;-80
2022/10/18 05:33:40;;;;;;;;;;;6.10;99.90;;;;;;5074174;28;19913;-81
2022/10/18 05:36:06;;;;;;;;;;;6.00;99.90;;;;;;5074198;28;19920;-79
2022/10/18 05:38:31;;;;;;;;;;;6.10;99.90;;;;;;5075439;28;19977;-79
2022/10/18 05:40:57;;;;;;;;;;;6.00;99.90;;;;;;5057127;28;20007;-80
2022/10/18 05:43:26;;;;;;;;;;;6.00;99.90;;;;;;5079116;28;19998;-80
2022/10/18 05:45:51;;;;;;;;;;;6.00;99.90;;;;;;5075963;28;20249;-80
2022/10/18 05:48:17;;;;;;;;;;;5.90;99.90;;;;;;5073740;28;19924;-80
2022/10/18 05:50:43;;;;;;;;;;;5.90;99.90;;;;;;5075442;28;20344;-80
2022/10/18 05:53:08;;;;;;;;;;;5.90;99.90;;;;;;5074165;28;19955;-80
2022/10/18 05:55:34;;;;;;;;;;;5.90;99.90;;;;;;5057170;28;20014;-80
2022/10/18 05:58:00;;;;;;;;;;;5.90;99.90;;;;;;5074925;28;19908;-80
2022/10/18 06:00:26;;;;;;;;;;;5.90;99.90;;;;;;5075141;28;20256;-80
2022/10/18 06:02:51;;;;;;;;;;;6.00;99.90;;;;;;5074917;28;20018;-79
2022/10/18 06:05:17;;;;;;;;;;;6.00;99.90;;;;;;5052819;28;19923;-80
2022/10/18 06:07:42;;;;;;;;;;;6.00;99.90;;;;;;5058427;28;19919;-80
2022/10/18 06:10:08;;;;;;;;;;;6.00;99.90;;;;;;5073510;28;19909;-80
2022/10/18 06:12:34;;;;;;;;;;;6.10;99.90;;;;;;5073978;28;19958;-80
2022/10/18 06:14:59;;;;;;;;;;;6.10;99.90;;;;;;5057274;28;20399;-80
2022/10/18 06:17:25;;;;;;;;;;;6.10;99.90;;;;;;5074421;28;19917;-80
2022/10/18 06:19:50;;;;;;;;;;;6.10;99.90;;;;;;5074753;28;19916;-80
2022/10/18 06:22:16;;;;;;;;;;;6.10;99.90;;;;;;5074532;28;19917;-80
2022/10/18 06:24:41;;;;;;;;;;;6.20;99.90;;;;;;5073671;28;19920;-80
2022/10/18 06:27:08;;;;;;;;;;;6.20;99.90;;;;;;5073623;28;19912;-81
2022/10/18 06:29:34;;;;;;;;;;;6.30;99.90;;;;;;5074226;28;19909;-80
2022/10/18 06:32:00;;;;;;;;;;;6.40;99.90;;;;;;5053129;28;19916;-80
2022/10/18 06:34:25;;;;;;;;;;;6.40;99.90;;;;;;5060007;28;19962;-80
2022/10/18 06:36:51;;;;;;;;;;;6.50;99.90;;;;;;5056257;28;19916;-80
2022/10/18 06:39:16;;;;;;;;;;;6.50;99.90;;;;;;5073511;28;19921;-80
2022/10/18 06:41:42;;;;;;;;;;;6.60;99.90;;;;;;5074383;28;20019;-80
2022/10/18 06:44:12;;;;;;;;;;;6.70;99.90;;;;;;5074611;28;19955;-81
2022/10/18 06:46:41;;;;;;;;;;;6.70;99.90;;;;;;5073664;28;19954;-80
2022/10/18 06:49:07;;;;;;;;;;;6.90;99.90;;;;;;5074801;28;19951;-80
2022/10/18 06:51:32;;;;;;;;;;;7.00;99.90;;;;;;5073023;28;20379;-81
2022/10/18 06:53:58;;;;;;;;;;;7.10;99.90;;;;;;5074497;28;19912;-80
2022/10/18 06:56:23;;;;;;;;;;;7.20;99.90;;;;;;5074461;28;19957;-81
2022/10/18 06:58:49;;;;;;;;;;;7.30;99.90;;;;;;5073112;28;19912;-81
2022/10/18 07:01:15;;;;;;;;;;;7.30;99.90;;;;;;5056257;28;19916;-81
2022/10/18 07:03:41;;;;;;;;;;;7.40;99.90;;;;;;5074233;28;19931;-81
2022/10/18 07:06:08;;;;;;;;;;;7.40;99.90;;;;;;5053901;28;20377;-81
2022/10/18 07:08:34;;;;;;;;;;;7.40;99.90;;;;;;5072822;28;19944;-81
2022/10/18 07:10:59;;;;;;;;;;;7.50;99.90;;;;;;5073990;28;20417;-81
2022/10/18 07:13:27;;;;;;;;;;;7.50;99.90;;;;;;5072971;28;19909;-81
2022/10/18 07:16:00;;;;;;;;;;;7.60;99.90;;;;;;5073865;28;19912;-81
2022/10/18 07:18:25;;;;;;;;;;;7.70;99.90;;;;;;5072627;28;20295;-81
2022/10/18 07:20:51;;;;;;;;;;;7.80;99.90;;;;;;5073927;28;19995;-81
2022/10/18 07:23:17;;;;;;;;;;;7.90;99.90;;;;;;5072655;28;19917;-81
2022/10/18 07:25:42;;;;;;;;;;;8.00;99.90;;;;;;5072488;28;20422;-81
2022/10/18 07:28:08;;;;;;;;;;;8.10;99.90;;;;;;5073991;28;19916;-81
2022/10/18 07:30:33;;;;;;;;;;;8.20;99.90;;;;;;5072637;28;19913;-80
2022/10/18 07:32:59;;;;;;;;;;;8.30;99.90;;;;;;5067439;28;19919;-80
2022/10/18 07:35:25;;;;;;;;;;;8.40;99.90;;;;;;5056080;28;19912;-80
2022/10/18 07:37:50;;;;;;;;;;;8.50;99.90;;;;;;5072744;28;19958;-80
2022/10/18 07:40:16;;;;;;;;;;;8.60;99.90;;;;;;5055936;28;19913;-81
2022/10/18 07:42:41;;;;;;;;;;;8.70;99.90;;;;;;5075535;28;19912;-80
2022/10/18 07:45:07;;;;;;;;;;;8.80;99.90;;;;;;5076679;28;19976;-80
2022/10/18 07:47:33;;;;;;;;;;;8.90;99.90;;;;;;5059373;28;19935;-81
2022/10/18 07:49:58;;;;;;;;;;;9.00;99.90;;;;;;5077607;28;19913;-81
2022/10/18 07:52:24;;;;;;;;;;;9.00;99.90;;;;;;5076043;28;19913;-80
2022/10/18 07:54:49;;;;;;;;;;;9.20;99.90;;;;;;5056161;28;19913;-80
2022/10/18 07:57:15;;;;;;;;;;;9.30;99.90;;;;;;5074454;28;19916;-81
2022/10/18 07:59:40;;;;;;;;;;;9.40;99.90;;;;;;5076139;28;19950;-81
2022/10/18 08:02:06;;;;;;;;;;;9.50;99.90;;;;;;5058203;28;20335;-81
2022/10/18 08:04:31;;;;;;;;;;;9.60;99.90;;;;;;5058913;28;20410;-81
2022/10/18 08:06:57;;;;;;;;;;;9.80;99.90;;;;;;5076219;28;20008;-81
2022/10/18 08:09:22;;;;;;;;;;;9.90;99.90;;;;;;5059423;28;19962;-81
2022/10/18 08:11:48;;;;;;;;;;;10.00;99.90;;;;;;5075979;28;19913;-81
2022/10/18 08:14:14;;;;;;;;;;;10.10;99.90;;;;;;5075753;28;20268;-81
2022/10/18 08:16:39;;;;;;;;;;;10.20;99.90;;;;;;5075515;28;19912;-81
2022/10/18 08:19:05;;;;;;;;;;;10.30;99.90;;;;;;5074489;28;19999;-81
2022/10/18 08:21:30;;;;;;;;;;;10.40;99.90;;;;;;5075939;28;19979;-81
2022/10/18 08:23:56;;;;;;;;;;;10.50;99.90;;;;;;5076063;28;20441;-81
2022/10/18 08:26:22;;;;;;;;;;;10.60;99.90;;;;;;5058212;28;20346;-80
2022/10/18 08:28:48;;;;;;;;;;;10.70;99.90;;;;;;5068051;28;19909;-81
2022/10/18 08:31:18;;;;;;;;;;;10.80;99.90;;;;;;5075803;28;19909;-81
2022/10/18 08:33:44;;;;;;;;;;;11.00;99.90;;;;;;5075855;28;20360;-81
2022/10/18 08:36:11;;;;;;;;;;;11.10;99.90;;;;;;5081926;28;19913;-81
2022/10/18 08:38:37;;;;;;;;;;;11.30;99.90;;;;;;5075608;28;19924;-80
2022/10/18 08:41:23;;;;;;;;;;;11.40;99.90;;;;;;5074273;28;19931;-81
2022/10/18 08:43:55;;;;;;;;;;;11.60;99.90;;;;;;5075062;28;19908;-81
2022/10/18 08:46:20;;;;;;;;;;;11.70;99.90;;;;;;5076105;28;19909;-81
2022/10/18 08:48:49;;;;;;;;;;;11.80;99.90;;;;;;5073856;28;20403;-81
2022/10/18 08:51:36;;;;;;;;;;;11.90;99.90;;;;;;5075207;28;19915;-81
2022/10/18 08:54:05;;;;;;;;;;;12.10;99.90;;;;;;5073203;28;19909;-81
2022/10/18 08:56:31;;;;;;;;;;;12.20;99.90;;;;;;5075295;28;19913;-81
2022/10/18 08:58:56;;;;;;;;;;;12.30;99.90;;;;;;5075262;28;19912;-81
2022/10/18 09:01:41;;;;;;;;;;;12.40;99.90;;;;;;5075561;28;20352;-81
2022/10/18 09:04:09;;;;;;;;;;;12.60;99.90;;;;;;5075932;28;19999;-81
2022/10/18 09:06:43;;;;;;;;;;;12.70;99.90;;;;;;5060690;28;19912;-81
2022/10/18 09:09:12;;;;;;;;;;;12.80;99.90;;;;;;5068487;28;20264;-81
2022/10/18 09:11:40;;;;;;;;;;;12.90;99.90;;;;;;5072603;28;19915;-81
2022/10/18 09:14:06;;;;;;;;;;;13.10;99.90;;;;;;5071296;28;19953;-81
2022/10/18 09:16:34;;;;;;;;;;;13.20;99.90;;;;;;5072945;28;20371;-81
2022/10/18 09:19:20;;;;;;;;;;;13.30;99.90;;;;;;5071955;28;19908;-81
2022/10/18 09:21:49;;;;;;;;;;;13.40;99.90;;;;;;5060772;28;20280;-81
2022/10/18 09:24:24;;;;;;;;;;;13.60;99.90;;;;;;5073137;28;19915;-83
2022/10/18 09:26:52;;;;;;;;;;;13.60;99.90;;;;;;5071848;28;19908;-83
2022/10/18 09:29:29;;;;;;;;;;;13.70;99.90;;;;;;5071149;28;20013;-83
2022/10/18 09:32:06;;;;;;;;;;;13.80;99.90;;;;;;5073546;28;19979;-83
2022/10/18 09:34:32;;;;;;;;;;;13.90;99.90;;;;;;5079875;28;19914;-83
2022/10/18 09:36:58;;;;;;;;;;;14.00;99.90;;;;;;5073127;28;19913;-83
2022/10/18 09:39:36;;;;;;;;;;;14.00;99.90;;;;;;5073597;28;20310;-83
2022/10/18 09:42:10;;;;;;;;;;;14.20;99.90;;;;;;5071751;28;19908;-83
2022/10/18 09:44:58;;;;;;;;;;;14.30;99.90;;;;;;5072026;28;19966;-82
2022/10/18 09:47:33;;;;;;;;;;;14.50;99.90;;;;;;5071863;28;19915;-83
2022/10/18 09:50:04;;;;;;;;;;;14.60;99.90;;;;;;5074093;28;19915;-83
2022/10/18 09:52:41;;;;;;;;;;;14.70;99.90;;;;;;5069688;28;20358;-83
2022/10/18 09:55:36;;;;;;;;;;;14.90;99.90;;;;;;5071719;28;19959;-83
2022/10/18 09:58:02;;;;;;;;;;;15.00;99.90;;;;;;5058699;28;19912;-83
2022/10/18 10:00:36;;;;;;;;;;;15.10;99.90;;;;;;5070815;28;20010;-83
2022/10/18 10:03:09;;;;;;;;;;;15.20;99.90;;;;;;5070913;28;20470;-83
2022/10/18 10:05:34;;;;;;;;;;;15.30;99.90;;;;;;5086876;28;19908;-83
2022/10/18 10:08:01;;;;;;;;;;;15.40;99.90;;;;;;5073337;28;19966;-84
2022/10/18 10:10:28;;;;;;;;;;;15.50;99.90;;;;;;5055658;28;20003;-83
2022/10/18 10:13:03;;;;;;;;;;;15.60;99.90;;;;;;5072029;28;20004;-84
2022/10/18 10:15:28;;;;;;;;;;;15.70;99.90;;;;;;5072523;28;19958;-82
2022/10/18 10:18:02;;;;;;;;;;;15.80;99.90;;;;;;5071674;28;19928;-83
2022/10/18 10:20:44;;;;;;;;;;;15.90;99.90;;;;;;5074235;28;19958;-84
2022/10/18 10:23:33;;;;;;;;;;;16.00;99.90;;;;;;5070308;28;19912;-84
2022/10/18 10:26:00;;;;;;;;;;;16.10;99.90;;;;;;5060919;28;19999;-82
2022/10/18 10:28:27;;;;;;;;;;;16.30;99.90;;;;;;5071354;28;20046;-83
2022/10/18 10:30:53;;;;;;;;;;;16.50;99.90;;;;;;5071767;28;19908;-83
2022/10/18 10:33:30;;;;;;;;;;;16.70;99.90;;;;;;5071792;28;20342;-80
2022/10/18 10:36:00;;;;;;;;;;;16.80;99.90;;;;;;5076908;28;19916;-80
2022/10/18 10:38:27;;;;;;;;;;;17.10;99.90;;;;;;5071268;28;19908;-80
2022/10/18 10:40:53;;;;;;;;;;;17.10;99.90;;;;;;5071039;28;19979;-80
2022/10/18 10:43:27;;;;;;;;;;;17.30;99.90;;;;;;5071174;28;19914;-80
2022/10/18 10:46:19;;;;;;;;;;;17.30;99.90;;;;;;5071606;28;20280;-80
2022/10/18 10:48:46;;;;;;;;;;;17.40;99.90;;;;;;5072115;28;19908;-80
2022/10/18 10:51:13;;;;;;;;;;;17.50;99.90;;;;;;5072106;28;20003;-81
2022/10/18 10:53:57;;;;;;;;;;;17.70;99.90;;;;;;5072736;28;20345;-80
2022/10/18 10:56:27;;;;;;;;;;;17.80;99.90;;;;;;5073178;28;19916;-80
2022/10/18 10:58:54;;;;;;;;;;;18.00;99.90;;;;;;5064904;28;20311;-82
2022/10/18 11:01:21;;;;;;;;;;;18.10;99.90;;;;;;5072236;28;19920;-82
2022/10/18 11:03:47;;;;;;;;;;;18.20;99.90;;;;;;5071926;28;20288;-83
2022/10/18 11:06:31;;;;;;;;;;;18.30;99.90;;;;;;5072057;28;19917;-82
2022/10/18 11:08:57;;;;;;;;;;;18.30;99.90;;;;;;5070024;28;19999;-83
2022/10/18 11:11:35;;;;;;;;;;;18.30;99.90;;;;;;5071513;28;19908;-83
2022/10/18 11:14:16;;;;;;;;;;;18.40;99.90;;;;;;5072694;28;19912;-83
2022/10/18 11:17:01;;;;;;;;;;;18.40;99.80;;;;;;5071345;28;19959;-83
2022/10/18 11:19:27;;;;;;;;;;;18.50;99.90;;;;;;5071594;28;19920;-83
2022/10/18 11:21:52;;;;;;;;;;;18.60;99.50;;;;;;5074299;28;19912;-82
2022/10/18 11:24:19;;;;;;;;;;;18.60;99.90;;;;;;5074736;28;20280;-83
2022/10/18 11:27:01;;;;;;;;;;;18.70;99.90;;;;;;5084842;28;19978;-84
2022/10/18 11:29:46;;;;;;;;;;;18.80;99.90;;;;;;5074467;28;20368;-83
2022/10/18 11:32:28;;;;;;;;;;;18.90;99.80;;;;;;5087469;28;19915;-82
2022/10/18 11:35:13;;;;;;;;;;;19.00;99.10;;;;;;5062520;28;20343;-82
2022/10/18 11:37:53;;;;;;;;;;;19.10;99.50;;;;;;5076173;28;19920;-81
2022/10/18 11:40:25;;;;;;;;;;;19.20;98.40;;;;;;5074896;28;19909;-81
2022/10/18 11:42:59;;;;;;;;;;;19.30;98.10;;;;;;5074778;28;19913;-81
2022/10/18 11:45:28;;;;;;;;;;;19.40;97.80;;;;;;5075040;28;19908;-82
2022/10/18 11:48:17;;;;;;;;;;;19.40;97.70;;;;;;5063426;28;19909;-82
2022/10/18 11:50:54;;;;;;;;;;;19.60;98.20;;;;;;5061130;28;19916;-82
2022/10/18 11:53:26;;;;;;;;;;;19.70;97.00;;;;;;5073565;28;19908;-83
2022/10/18 11:56:10;;;;;;;;;;;19.80;97.10;;;;;;5073832;28;19909;-82
2022/10/18 11:58:36;;;;;;;;;;;19.90;96.10;;;;;;5073606;28;19912;-82
2022/10/18 12:01:01;;;;;;;;;;;20.00;96.70;;;;;;5076127;28;20437;-83
2022/10/18 12:03:27;;;;;;;;;;;20.10;96.40;;;;;;5076086;28;19912;-83
2022/10/18 12:05:54;;;;;;;;;;;20.30;97.20;;;;;;5080737;28;20004;-83
2022/10/18 12:08:22;;;;;;;;;;;20.30;97.00;;;;;;5076477;28;19912;-83
2022/10/18 12:10:49;;;;;;;;;;;20.50;96.30;;;;;;5076442;28;19909;-83
2022/10/18 12:13:17;;;;;;;;;;;20.60;94.20;;;;;;5073116;28;19908;-83
2022/10/18 12:15:43;;;;;;;;;;;20.60;94.00;;;;;;5075490;28;20382;-81
2022/10/18 12:18:12;;;;;;;;;;;20.70;95.80;;;;;;5074588;28;20004;-81
2022/10/18 12:20:44;;;;;;;;;;;20.80;94.30;;;;;;5073321;28;19958;-81
2022/10/18 12:23:19;;;;;;;;;;;20.90;95.30;;;;;;5074259;28;19908;-81
2022/10/18 12:25:47;;;;;;;;;;;21.00;94.60;;;;;;5074762;28;19908;-81
2022/10/18 12:28:13;;;;;;;;;;;21.10;94.00;;;;;;5072319;28;19912;-82
2022/10/18 12:30:41;;;;;;;;;;;21.10;93.30;;;;;;5075810;28;19909;-82
2022/10/18 12:33:13;;;;;;;;;;;21.20;94.50;;;;;;5076164;28;20003;-82
2022/10/18 12:35:46;;;;;;;;;;;21.30;95.10;;;;;;5076400;28;20057;-82
2022/10/18 12:38:24;;;;;;;;;;;21.40;93.90;;;;;;5083776;28;19962;-83
2022/10/18 12:40:51;;;;;;;;;;;21.40;92.80;;;;;;5071311;28;20391;-82
2022/10/18 12:43:22;;;;;;;;;;;21.50;92.30;;;;;;5075722;28;20323;-83
2022/10/18 12:45:55;;;;;;;;;;;21.60;93.20;;;;;;5075527;28;20364;-83
2022/10/18 12:48:33;;;;;;;;;;;21.60;87.10;;;;;;5073798;28;19921;-83
2022/10/18 12:51:02;;;;;;;;;;;21.50;88.30;;;;;;5073556;28;19908;-83
2022/10/18 12:53:28;;;;;;;;;;;21.40;90.40;;;;;;5087033;28;19909;-83
2022/10/18 12:55:54;;;;;;;;;;;21.30;90.90;;;;;;5071397;28;19920;-82
2022/10/18 12:58:29;;;;;;;;;;;21.30;91.00;;;;;;5078194;28;19920;-83
2022/10/18 13:00:56;;;;;;;;;;;21.30;91.90;;;;;;5059284;28;19927;-82
2022/10/18 13:03:29;;;;;;;;;;;21.30;91.30;;;;;;5071447;28;19912;-83
2022/10/18 13:05:56;;;;;;;;;;;21.30;90.60;;;;;;5077814;28;19947;-83
2022/10/18 13:08:36;;;;;;;;;;;21.30;91.80;;;;;;5081274;28;19912;-83
2022/10/18 13:11:08;;;;;;;;;;;21.30;91.80;;;;;;5073832;28;19912;-82
2022/10/18 13:13:42;;;;;;;;;;;21.30;91.70;;;;;;5072917;28;19908;-83
2022/10/18 13:16:13;;;;;;;;;;;21.30;91.90;;;;;;5079093;28;19921;-85
2022/10/18 13:18:48;;;;;;;;;;;21.40;91.50;;;;;;5074565;28;20378;-83
2022/10/18 13:21:17;;;;;;;;;;;21.40;91.80;;;;;;5073380;28;19908;-83
2022/10/18 13:23:42;;;;;;;;;;;21.40;91.80;;;;;;5073030;28;20000;-83
2022/10/18 13:26:20;;;;;;;;;;;21.40;91.50;;;;;;5072271;28;20003;-83
2022/10/18 13:28:51;;;;;;;;;;;21.40;91.70;;;;;;5073459;28;19909;-83
2022/10/18 13:31:16;;;;;;;;;;;21.30;92.80;;;;;;5071696;28;19922;-83
2022/10/18 13:33:42;;;;;;;;;;;21.30;91.50;;;;;;5070708;28;19991;-82
2022/10/18 13:36:16;;;;;;;;;;;21.30;91.30;;;;;;5070141;28;20279;-83
2022/10/18 13:38:54;;;;;;;;;;;21.30;89.70;;;;;;5071445;28;19933;-83
2022/10/18 13:41:28;;;;;;;;;;;21.20;89.50;;;;;;5072387;28;19908;-83
2022/10/18 13:43:54;;;;;;;;;;;21.10;90.60;;;;;;5088355;28;19916;-83
2022/10/18 13:46:24;;;;;;;;;;;21.00;90.30;;;;;;5071999;28;20371;-83
2022/10/18 13:48:50;;;;;;;;;;;21.00;90.20;;;;;;5071309;28;19948;-83
2022/10/18 13:51:16;;;;;;;;;;;21.00;91.20;;;;;;5073883;28;19912;-82
2022/10/18 13:53:51;;;;;;;;;;;20.90;91.20;;;;;;5073852;28;19955;-82
2022/10/18 13:56:37;;;;;;;;;;;20.90;90.20;;;;;;5072425;28;20560;-82
2022/10/18 13:59:12;;;;;;;;;;;20.80;89.60;;;;;;5065824;28;19908;-82
2022/10/18 14:01:46;;;;;;;;;;;20.80;91.30;;;;;;5070898;28;20295;-83
2022/10/18 14:04:31;;;;;;;;;;;20.80;91.00;;;;;;5067410;28;20360;-83
2022/10/18 14:06:58;;;;;;;;;;;20.80;92.00;;;;;;5073189;28;20418;-83
2022/10/18 14:09:25;;;;;;;;;;;20.80;92.90;;;;;;5073030;28;20288;-82
2022/10/18 14:12:01;;;;;;;;;;;20.80;94.70;;;;;;5071780;28;19912;-83
2022/10/18 14:14:35;;;;;;;;;;;20.80;93.70;;;;;;5074031;28;19970;-83
2022/10/18 14:17:09;;;;;;;;;;;20.80;93.40;;;;;;5074554;28;19938;-83
2022/10/18 14:19:48;;;;;;;;;;;20.70;93.30;;;;;;5071895;28;20111;-82
2022/10/18 14:22:16;;;;;;;;;;;20.60;93.90;;;;;;5073719;28;19915;-83
2022/10/18 14:24:43;;;;;;;;;;;20.50;92.80;;;;;;5074134;28;19916;-83
2022/10/18 14:27:11;;;;;;;;;;;20.50;93.90;;;;;;5072684;28;19909;-83
2022/10/18 14:29:37;;;;;;;;;;;20.40;94.60;;;;;;5074078;28;19913;-83
2022/10/18 14:32:06;;;;;;;;;;;20.40;94.70;;;;;;5072897;28;19951;-83
2022/10/18 14:34:33;;;;;;;;;;;20.50;94.70;;;;;;5078671;28;19955;-83